Central Sonoma County Latest

37 Stations

15 Minute Data | America/Los_Angeles
as of 8/30/26 11:50 PM PDT
Station Date Time Temp (°F) RH (%) Dew Pt (°F) Wind Spd (mph) Wind Dir (°) Wind Gust (mph) Latest Rain (In) Daily Rain (In) Daily Max Temp (°F) Daily Min Temp (°F)
Windsor-NW (Ranch 8) 8/30/26 2345 53.8   4.3 82   4 48.3   2.8 0.0   0.0 WSW | 247 0.0   0.0 0.00 0.00 88.2   2.0 49.2   0.2
Windsor-East (Ranch 16) 8/30/26 2345 54.8   1.3 86   5 50.8   3.0 1.0   0.3 SSE | 155 2.1   0.5 0.00 0.00 85.4   2.0 44.1   1.0
Mark West-North (Ranch 14) 8/30/26 2345 55.0   4.2 87   17 51.1   1.6 1.3   0.4 WNW | 285 3.8   1.0 0.00 0.00 83.7   0.8 45.8   4.7
Windsor-SE (Silk Rd) 8/30/26 2345 53.5   0.6 91   6 50.8   2.3 0.1   0.4 SSE | 155 1.0   0.8 0.00 0.00 84.2   0.4 43.5   2.8
Fulton-NW (Ranch 5) 8/30/26 2345 54.3   1.8 89   11 51.3   1.8 1.5   0.6 SE | 126 2.9   0.5 0.00 0.00 83.0   1.4 45.0   4.2
Bisordi (Fulton) 8/30/26 2345 53.7   1.7 88   7 50.4   0.5 0.5   0.0 SSE | 158 2.0   0.4 0.00 0.00 83.5   1.4 42.8   3.5
Windsor-South (Laughlin Rd) 8/30/26 2345 53.7   4.0 89   14 50.6   0.8 - - - 0.00 0.00 84.8   0.6 47.0   2.9
Fulton-SE (Barnes Rd) 8/30/26 2345 56.2   3.4 85   12 51.8   0.8 2.5   0.0 SE | 139 5.4   0.2 0.00 0.00 83.1   2.7 46.5   4.2
Fulton-SW (Ranch 21) 8/30/26 2345 53.7   0.7 90   8 50.9   1.8 1.5   0.5 SSE | 154 3.8   1.8 0.00 0.00 82.1   1.1 45.4   5.2
NW Santa Rosa (Piner Road) 8/30/26 2345 53.8   3.1 100   9 53.8   0.7 0.6   0.1 SE | 128 2.7   0.2 0.00 0.00 82.7   0.8 43.0   7.9
River Rd South (Denner Ranch) 8/30/26 2345 51.9   2.1 0   84 -66.6   115.9 0.9   0.5 SE | 135 2.8   0.7 - - 82.3   0.6 43.6   5.0
West Santa Rosa (LOV Vineyard) 8/26/26 0900 53.3   5.2 97   6 52.4   3.5 1.0   0.1 SW | 224 3.6   0.0 0.00 0.00 53.6   5.2 50.2   1.8
Guerneville Rd (Prokopakis) 8/30/26 2345 53.6   2.2 92   13 51.2   2.0 - - - 0.00 0.00 88.3   0.9 44.0   5.9
SunnyView Vineyard (SCWC) 8/30/26 2345 52.9   3.1 90   12 50.1   0.7 0.3   0.3 ESE | 115 2.5   0.1 0.00 0.00 82.5   0.5 41.8   8.7
Guerneville Rd West (Balletto) 8/30/26 2345 53.1   1.3 93   7 51.2   0.8 0.5   0.1 SE | 142 2.4   0.7 0.00 0.00 81.4   1.0 44.0   6.5
Sanchietti Ranch 8/30/26 2345 53.4   2.7 91   8 51.0   0.3 1.9   0.3 SE | 130 3.4   0.5 0.00 0.00 82.3   1.1 43.1   8.2
Occidental Rd (Sebastopol) 8/30/26 2345 51.4   1.2 100   0 51.4   1.2 0.3   0.3 ESE | 123 1.8   1.8 0.00 0.00 82.2   0.9 42.6   7.1
Harper's Rest (Windsor-West) 8/30/26 2345 50.8   2.6 90   6 48.1   0.6 0.8   0.6 W | 263 1.8   0.6 0.00 0.00 87.9   3.0 45.3   2.8
Lower Westside Rd (Ranch 12) 8/30/26 2345 53.2   0.2 88   1 49.7   0.2 0.0   0.1 N | 0 0.0   1.4 0.00 0.00 85.6   2.2 44.3   2.8
Guerneville (Laughlin Rd) 8/30/26 2345 51.9   0.3 84   1 47.1   0.1 0.0   1.0 N | 0 0.0   1.9 0.00 0.00 82.7   0.7 43.7   3.9
Korbel (Winery) 8/30/26 2345 55.6   1.2 85   1 51.1   1.0 2.3   2.3 SSE | 166 5.8   4.8 0.00 0.00 83.8   2.0 46.0   2.4
Forestville (Shone Farms) 8/30/26 2345 53.4   4.0 90   14 50.7   0.8 0.5   0.2 NE | 52 1.6   1.1 0.00 0.00 86.6   2.9 47.2   1.3
Forestville-NE (Ranch 30) 8/30/26 2345 52.5   1.5 93   4 50.5   0.2 1.0   0.6 NE | 35 1.9   0.4 0.00 0.00 85.1   0.1 45.5   0.9
Foggy Bend (Ranch 41) 8/30/26 2345 53.9   1.1 90   3 51.0   0.0 1.4   0.2 NE | 56 2.6   0.2 0.00 0.00 84.8   0.6 45.0   3.4
Last Stop 8/30/26 2345 50.1   1.3 91   2 47.5   0.6 0.1   1.2 WSW | 252 1.0   1.0 0.00 0.00 86.3   1.3 43.8   2.4
Green Valley Vineyard 8/30/26 2345 51.4   2.5 92   8 49.3   0.1 0.5   0.1 NNW | 336 1.3   0.4 0.00 0.00 82.1   3.0 45.5   1.6
Park Royal 8/30/26 2345 53.9   3.0 88   12 50.4   1.1 - - - 0.00 0.00 82.5   1.2 45.0   5.5
Merino 8/30/26 2345 51.3   1.1 95   4 49.9   0.1 0.3   0.5 SE | 138 1.3   1.0 0.00 0.00 85.3   1.9 40.4   10.8
Green Valley (Sanchietti) 8/30/26 2345 50.0   1.0 - - - - - - - 85.1   1.9 39.0   3.9
Keefer Ranch (Green Valley) 8/30/26 2345 48.3   1.6 92   1 46.1   1.3 - - - 0.00 0.00 82.4   3.8 41.6   3.4
Graton-West (Dutton Ranch) 8/30/26 2345 49.5   1.7 100   0 49.5   1.7 0.2   0.0 SSE | 163 0.9   0.0 0.00 0.00 82.8   2.6 42.0   3.7
Graton-South (Mill Station Rd) 8/30/26 2345 49.6   2.2 92   7 47.4   0.1 0.0   0.0 N | 0 0.0   0.0 0.00 0.00 78.4   6.0 40.5   3.3
Occidental (Horseshoe Bend) 8/30/26 2345 51.6   2.1 97   20 50.7   4.3 - - - 0.00 0.00 78.5   3.0 49.2   2.0
Sexton Valley (Jacqueline's Blk) 8/30/26 2345 50.4   0.5 92   2 48.2   0.0 0.1   0.6 SSW | 192 0.7   1.2 0.00 0.00 79.4   4.7 41.9   0.6
Sebastopol Hills (Burnside Rd) 8/30/26 2345 50.8   7.5 97   26 50.0   1.2 0.0   1.1 N | 0 0.0   2.4 0.00 0.00 74.7   7.0 48.7   2.2
Pleasant Hill 8/30/26 2345 50.8   0.9 93   4 48.9   1.9 1.0   0.6 SSW | 210 3.1   1.9 0.00 0.00 80.5   2.5 44.8   0.1
Seaview/Fort Ross (Hirsch) 8/30/26 2345 68.0   10.7 41   28 43.1   3.7 0.8   4.1 SSW | 201 2.0   7.2 0.00 0.00 75.7   1.6 54.6   0.9
Max     68.0 100 53.8 2.5 - 5.8 0.00 0.00 88.3 54.6
Avg     52.9 87 46.5 0.7 - 2.0 0.00 - - -
Min     48.3 0 -66.6 0.0 - 0.0 0.00 0.00 74.7 39.0